Terminal Aerodrome Forecast
Issued by NWS Cleveland, OH

Home | Current Version | Previous Version | Graphics & Text | Print | Product List | Glossary On
Versions: 1 2 3 4 5 6 7 8 9 10 11 12 13 14 15 16 17 18 19 20 21
000
FTUS41 KCLE 140542
TAFCAK
TAF
KCAK 140542Z 1406/1506 24010KT 2SM -SN SCT007 OVC015
      TEMPO 1406/1409 3/4SM -SN OVC007
     FM141000 34010KT P6SM VCSH BKN007 OVC015
     FM141500 33010KT P6SM SCT015 BKN025
     FM142300 29005KT P6SM BKN035=

USA.gov is the U.S. government's official web portal to all federal, state and local government web resources and services.